Cherryville, Missouri
Current Conditions -  °F | °C
As of 11:53 PM on Monday 26 Jan 2015 (Local Time) from KVIH Reporting Station
Clear Clear  
Wind Chill:   Ceiling: Unl
Heat Index:   Visibility: 10mi
Dew Point:   Wind: 12mph
Humidity: 68%   Direction: 310°NW
Pressure: 29.92"   Gusts: NA
Location:  37.85°N, 91.28°W
Report Text: KVIH 270553Z AUTO 31010KT 10SM CLR 06/01 A2992 RMK AO2 SLP137 T00610006 10089 20056 401111017 51002
Loading
Personal Weather Stations






























Interactive Weather Map New forecast layout! Learn more

10-Day Weather Forecast

Advertisements
Track Severe Weather on mobile